Burton City, Ohio
Current Conditions -  °F | °C
As of 5:12 PM on Tuesday 21 Oct 2014 (Local Time) from KBJJ Reporting Station
Light Rain Light Rain  
Wind Chill: 41°   Ceiling: 1300
Heat Index: 47°   Visibility: 7mi
Dew Point: 43°   Wind: 14mph
Humidity: 86%   Direction: 330°NNW
Pressure: 30.02"   Gusts: NA
Location:  40.8369°N, 81.7632°W
Report Text: KBJJ 212112Z AUTO 33012KT 7SM -RA FEW008 OVC013 08/06 A3002 RMK AO2 P0000 T00830061 TSNO
Loading
Personal Weather Stations






























Interactive Weather Map
Tropical Storm Tracking
New forecast layout! Learn more

10-Day Weather Forecast

Advertisements
Track Severe Weather on mobile